This is the latest recevied weather packets stored in our database for station/object DL4MGC-10. If no packets are shown the sender has not sent any weather packets the latest 10 day(s).
| Time | Temp. | Humidity | Pressure | Rain* | Wind** | Luminosity | Snow |
|---|---|---|---|---|---|---|---|
| 1777157788 | 8.89° C | 66% | 1018.8 hPa | - | - | - | - |
| 1777156888 | 8.89° C | 67% | 1018.8 hPa | - | - | - | - |
| 1777155988 | 9.44° C | 63% | 1018.6 hPa | - | - | - | - |
| 1777155088 | 10° C | 61% | 1018.5 hPa | - | - | - | - |
| 1777154188 | 9.44° C | 64% | 1018.6 hPa | - | - | - | - |
| 1777153288 | 10° C | 66% | 1018.4 hPa | - | - | - | - |
| 1777152388 | 11.67° C | 58% | 1018.3 hPa | - | - | - | - |
| 1777151487 | 11.67° C | 59% | 1018.2 hPa | - | - | - | - |
| 1777150587 | 12.78° C | 56% | 1018.2 hPa | - | - | - | - |
| 1777149687 | 12.78° C | 56% | 1018.1 hPa | - | - | - | - |
| 1777148787 | 13.33° C | 56% | 1017.8 hPa | - | - | - | - |
| 1777147887 | 13.89° C | 55% | 1017.8 hPa | - | - | - | - |
| 1777146987 | 14.44° C | 55% | 1017.7 hPa | - | - | - | - |
| 1777146087 | 13.89° C | 52% | 1017.5 hPa | - | - | - | - |
| 1777145187 | 15.56° C | 47% | 1017.3 hPa | - | - | - | - |
| 1777144287 | 16.11° C | 46% | 1016.9 hPa | - | - | - | - |
| 1777143387 | 16.67° C | 42% | 1016.9 hPa | - | - | - | - |
| 1777142487 | 17.22° C | 40% | 1016.5 hPa | - | - | - | - |
| 1777141587 | 18.33° C | 35% | 1016.3 hPa | - | - | - | - |
| 1777140686 | 18.89° C | 35% | 1016.3 hPa | - | - | - | - |
| 1777139786 | 19.44° C | 34% | 1016 hPa | - | - | - | - |
| 1777138886 | 19.44° C | 34% | 1015.9 hPa | - | - | - | - |
| 1777137986 | 20° C | 34% | 1015.8 hPa | - | - | - | - |
| 1777137086 | 20.56° C | 34% | 1015.8 hPa | - | - | - | - |
| 1777136186 | 21.11° C | 34% | 1015.8 hPa | - | - | - | - |
* Rain since midnight (hover to see other rain measurements)
** Current wind speed in m/s (hover to see current wind gust speed)